Time;durP1;ratioP1;P1;durP2;ratioP2;P2;SDS_P1;SDS_P2;PMS_P1;PMS_P2;Temp;Humidity;BMP_temperature;BMP_pressure;BME280_temperature;BME280_humidity;BME280_pressure;Samples;Min_cycle;Max_cycle;Signal;HPM_P1;HPM_P2
2023/07/05 00:00:19;;;;;;;;;;;23.50;88.70;;;;;;5115970;28;19953;-50
2023/07/05 00:02:45;;;;;;;;;;;23.50;88.70;;;;;;5115732;28;19914;-50
2023/07/05 00:05:11;;;;;;;;;;;23.50;88.70;;;;;;5115602;28;19908;-48
2023/07/05 00:07:37;;;;;;;;;;;23.50;88.70;;;;;;5115244;28;19921;-52
2023/07/05 00:10:02;;;;;;;;;;;23.50;88.60;;;;;;5115778;28;19981;-51
2023/07/05 00:12:28;;;;;;;;;;;23.50;88.60;;;;;;5115697;28;20002;-50
2023/07/05 00:14:53;;;;;;;;;;;23.50;88.70;;;;;;5116047;28;20263;-50
2023/07/05 00:17:19;;;;;;;;;;;23.50;88.70;;;;;;5115685;28;19907;-48
2023/07/05 00:19:48;;;;;;;;;;;23.50;88.80;;;;;;5115669;28;20006;-54
2023/07/05 00:22:14;;;;;;;;;;;23.50;88.80;;;;;;5115868;28;19908;-51
2023/07/05 00:24:40;;;;;;;;;;;23.50;88.70;;;;;;5097208;28;19908;-53
2023/07/05 00:27:05;;;;;;;;;;;23.50;88.80;;;;;;5115108;28;19996;-53
2023/07/05 00:29:31;;;;;;;;;;;23.50;88.70;;;;;;5115289;28;20004;-54
2023/07/05 00:31:56;;;;;;;;;;;23.50;88.70;;;;;;5115710;28;19923;-49
2023/07/05 00:34:22;;;;;;;;;;;23.50;88.70;;;;;;5115005;28;19915;-51
2023/07/05 00:36:47;;;;;;;;;;;23.50;88.70;;;;;;5115097;28;19908;-52
2023/07/05 00:39:13;;;;;;;;;;;23.50;88.70;;;;;;5096951;28;20312;-51
2023/07/05 00:41:38;;;;;;;;;;;23.50;88.70;;;;;;5115533;28;19912;-52
2023/07/05 00:44:03;;;;;;;;;;;23.50;89.20;;;;;;5114842;28;19912;-50
2023/07/05 00:46:30;;;;;;;;;;;23.50;88.80;;;;;;5097220;28;19934;-50
2023/07/05 00:48:58;;;;;;;;;;;23.40;84.30;;;;;;5092872;28;19928;-50
2023/07/05 00:51:26;;;;;;;;;;;23.40;85.60;;;;;;5094398;28;19913;-51
2023/07/05 00:53:53;;;;;;;;;;;23.40;86.70;;;;;;5094993;28;19908;-49
2023/07/05 00:56:36;;;;;;;;;;;23.40;87.10;;;;;;5094403;28;20007;-50
2023/07/05 00:59:02;;;;;;;;;;;23.40;87.40;;;;;;5094719;28;20248;-49
2023/07/05 01:01:27;;;;;;;;;;;23.40;87.60;;;;;;5094352;28;19908;-51
2023/07/05 01:03:55;;;;;;;;;;;23.40;87.80;;;;;;5094581;28;19908;-49
2023/07/05 01:06:22;;;;;;;;;;;23.40;87.90;;;;;;5095008;28;19947;-51
2023/07/05 01:08:48;;;;;;;;;;;23.40;87.90;;;;;;5094182;28;19924;-51
2023/07/05 01:11:20;;;;;;;;;;;23.40;88.00;;;;;;5094143;28;19912;-49
2023/07/05 01:13:53;;;;;;;;;;;23.40;88.00;;;;;;5094474;28;19909;-51
2023/07/05 01:16:38;;;;;;;;;;;23.40;88.10;;;;;;5094893;28;19915;-53
2023/07/05 01:19:09;;;;;;;;;;;23.40;88.10;;;;;;5091494;28;19912;-48
2023/07/05 01:21:48;;;;;;;;;;;23.40;88.10;;;;;;5097898;28;20309;-52
2023/07/05 01:24:17;;;;;;;;;;;23.40;88.10;;;;;;5113230;28;20339;-50
2023/07/05 01:26:45;;;;;;;;;;;23.40;88.10;;;;;;5112569;28;20384;-51
2023/07/05 01:29:35;;;;;;;;;;;23.40;88.10;;;;;;5112185;28;19911;-53
2023/07/05 01:32:05;;;;;;;;;;;23.40;88.10;;;;;;5112275;28;19912;-55
2023/07/05 01:34:34;;;;;;;;;;;23.40;88.10;;;;;;5112190;28;19908;-55
2023/07/05 01:37:02;;;;;;;;;;;23.40;88.10;;;;;;5112162;28;19980;-52
2023/07/05 01:39:28;;;;;;;;;;;23.40;88.10;;;;;;5112142;28;20282;-52
2023/07/05 01:41:53;;;;;;;;;;;23.40;88.20;;;;;;5114075;28;19907;-53
2023/07/05 01:44:19;;;;;;;;;;;23.40;88.10;;;;;;5114049;28;19924;-53
2023/07/05 01:46:56;;;;;;;;;;;23.30;88.10;;;;;;5114066;28;19914;-52
2023/07/05 01:49:28;;;;;;;;;;;23.40;88.20;;;;;;5114362;28;19957;-54
2023/07/05 01:51:58;;;;;;;;;;;23.40;88.20;;;;;;5114445;28;20342;-52
2023/07/05 01:54:28;;;;;;;;;;;23.40;88.20;;;;;;5114349;28;19983;-54
2023/07/05 01:56:56;;;;;;;;;;;23.40;88.20;;;;;;5114671;28;19908;-52
2023/07/05 01:59:23;;;;;;;;;;;23.40;88.20;;;;;;5114263;28;19908;-52
2023/07/05 02:01:50;;;;;;;;;;;23.40;88.20;;;;;;5114030;28;20294;-49
2023/07/05 02:04:16;;;;;;;;;;;23.40;88.30;;;;;;5114291;28;19912;-53
2023/07/05 02:06:42;;;;;;;;;;;23.40;88.30;;;;;;5113919;28;19961;-53
2023/07/05 02:09:07;;;;;;;;;;;23.40;88.30;;;;;;5114013;28;19959;-49
2023/07/05 02:11:33;;;;;;;;;;;23.40;88.30;;;;;;5113907;28;19954;-53
2023/07/05 02:13:58;;;;;;;;;;;23.30;88.20;;;;;;5114162;28;20011;-52
2023/07/05 02:16:24;;;;;;;;;;;23.40;88.40;;;;;;5095916;28;19915;-53
2023/07/05 02:18:49;;;;;;;;;;;23.40;88.80;;;;;;5114489;28;19908;-49
2023/07/05 02:21:15;;;;;;;;;;;23.30;88.20;;;;;;5114111;28;19916;-49
2023/07/05 02:23:40;;;;;;;;;;;23.40;88.40;;;;;;5114417;28;19908;-53
2023/07/05 02:26:06;;;;;;;;;;;23.30;88.30;;;;;;5095883;28;20288;-51
2023/07/05 02:28:32;;;;;;;;;;;23.30;88.40;;;;;;5114027;28;20038;-49
2023/07/05 02:31:02;;;;;;;;;;;23.30;88.30;;;;;;5115898;28;20370;-48
2023/07/05 02:33:27;;;;;;;;;;;23.30;88.30;;;;;;5117455;28;19915;-50
2023/07/05 02:35:53;;;;;;;;;;;23.30;88.40;;;;;;5117754;28;19908;-51
2023/07/05 02:38:18;;;;;;;;;;;23.30;88.30;;;;;;5117466;28;20377;-53
2023/07/05 02:40:48;;;;;;;;;;;23.30;88.30;;;;;;5117659;28;19943;-49
2023/07/05 02:43:13;;;;;;;;;;;23.30;88.30;;;;;;5099325;28;20369;-50
2023/07/05 02:45:39;;;;;;;;;;;23.30;88.30;;;;;;5117204;28;19919;-49
2023/07/05 02:48:04;;;;;;;;;;;23.30;88.30;;;;;;5117458;28;19930;-51
2023/07/05 02:50:30;;;;;;;;;;;23.30;88.30;;;;;;5117164;28;19912;-53
2023/07/05 02:52:55;;;;;;;;;;;23.30;88.30;;;;;;5117430;28;19915;-50
2023/07/05 02:55:21;;;;;;;;;;;23.30;88.40;;;;;;5117429;28;20008;-52
2023/07/05 02:57:46;;;;;;;;;;;23.30;88.40;;;;;;5117374;28;19908;-52
2023/07/05 03:00:12;;;;;;;;;;;23.30;88.40;;;;;;5117273;28;19960;-51
2023/07/05 03:02:37;;;;;;;;;;;23.30;88.40;;;;;;5116946;28;19908;-51
2023/07/05 03:05:06;;;;;;;;;;;23.30;88.40;;;;;;5117167;28;19908;-53
2023/07/05 03:07:32;;;;;;;;;;;23.30;88.40;;;;;;5116820;28;20282;-51
2023/07/05 03:09:58;;;;;;;;;;;23.30;88.40;;;;;;5117087;28;19911;-49
2023/07/05 03:12:23;;;;;;;;;;;23.30;88.40;;;;;;5116816;28;19912;-52
2023/07/05 03:14:49;;;;;;;;;;;23.30;88.50;;;;;;5116981;28;19914;-52
2023/07/05 03:17:14;;;;;;;;;;;23.30;88.50;;;;;;5117148;28;19974;-52
2023/07/05 03:19:40;;;;;;;;;;;23.30;88.60;;;;;;5116613;28;20265;-50
2023/07/05 03:22:05;;;;;;;;;;;23.30;88.60;;;;;;5116596;28;20354;-52
2023/07/05 03:24:31;;;;;;;;;;;23.30;88.50;;;;;;5116463;28;19908;-50
2023/07/05 03:26:56;;;;;;;;;;;23.30;88.50;;;;;;5116400;28;19911;-50
2023/07/05 03:29:22;;;;;;;;;;;23.30;88.60;;;;;;5116274;28;19911;-50
2023/07/05 03:31:47;;;;;;;;;;;23.30;88.60;;;;;;5116578;28;19912;-51
2023/07/05 03:34:14;;;;;;;;;;;23.30;88.60;;;;;;5116883;28;19908;-52
2023/07/05 03:36:40;;;;;;;;;;;23.30;88.60;;;;;;5116358;28;19915;-53
2023/07/05 03:39:05;;;;;;;;;;;23.30;88.60;;;;;;5116119;28;20003;-52
2023/07/05 03:41:31;;;;;;;;;;;23.30;88.50;;;;;;5115545;28;19937;-50
2023/07/05 03:43:57;;;;;;;;;;;23.30;88.60;;;;;;5116159;28;20239;-53
2023/07/05 03:46:23;;;;;;;;;;;23.30;88.60;;;;;;5116423;28;19912;-54
2023/07/05 03:48:49;;;;;;;;;;;23.30;88.60;;;;;;5115968;28;19912;-51
2023/07/05 03:51:16;;;;;;;;;;;23.30;88.50;;;;;;5116210;28;19923;-51
2023/07/05 03:53:42;;;;;;;;;;;23.30;88.60;;;;;;5116085;28;19960;-51
2023/07/05 03:56:09;;;;;;;;;;;23.30;88.60;;;;;;5115780;28;19908;-50
2023/07/05 03:58:35;;;;;;;;;;;23.30;88.70;;;;;;5115839;28;20247;-52
2023/07/05 04:01:21;;;;;;;;;;;23.30;88.70;;;;;;5116418;28;19915;-52
2023/07/05 04:03:48;;;;;;;;;;;23.30;88.80;;;;;;5115476;28;19907;-52
2023/07/05 04:06:15;;;;;;;;;;;23.30;88.80;;;;;;5097678;28;20379;-49
2023/07/05 04:08:40;;;;;;;;;;;23.30;88.90;;;;;;5115801;28;19912;-50
2023/07/05 04:11:06;;;;;;;;;;;23.30;88.90;;;;;;5115787;28;20270;-53
2023/07/05 04:13:32;;;;;;;;;;;23.30;89.00;;;;;;5115460;28;19955;-51
2023/07/05 04:15:58;;;;;;;;;;;23.30;89.00;;;;;;5115696;28;20006;-53
2023/07/05 04:18:24;;;;;;;;;;;23.30;89.00;;;;;;5115171;28;20316;-53
2023/07/05 04:20:50;;;;;;;;;;;23.30;89.00;;;;;;5115204;28;19960;-53
2023/07/05 04:23:15;;;;;;;;;;;23.30;89.00;;;;;;5115137;28;19915;-52
2023/07/05 04:25:41;;;;;;;;;;;23.40;89.00;;;;;;5114844;28;20007;-50
2023/07/05 04:28:07;;;;;;;;;;;23.40;89.00;;;;;;5115136;28;20342;-52
2023/07/05 04:30:32;;;;;;;;;;;23.40;89.10;;;;;;5115183;28;19957;-53
2023/07/05 04:32:57;;;;;;;;;;;23.30;89.00;;;;;;5115052;28;19915;-53
2023/07/05 04:35:23;;;;;;;;;;;23.40;89.10;;;;;;5115553;28;20394;-51
2023/07/05 04:37:48;;;;;;;;;;;23.40;89.10;;;;;;5097028;28;19908;-53
2023/07/05 04:40:14;;;;;;;;;;;23.40;89.10;;;;;;5115173;28;19907;-50
2023/07/05 04:42:39;;;;;;;;;;;23.40;89.00;;;;;;5114912;28;19915;-53
2023/07/05 04:45:05;;;;;;;;;;;23.40;89.00;;;;;;5093023;28;20338;-50
2023/07/05 04:47:31;;;;;;;;;;;23.40;89.00;;;;;;5094519;28;19994;-50
2023/07/05 04:49:56;;;;;;;;;;;23.40;88.90;;;;;;5094546;28;19922;-50
2023/07/05 04:52:21;;;;;;;;;;;23.40;88.90;;;;;;5094875;28;19918;-48
2023/07/05 04:54:47;;;;;;;;;;;23.40;88.90;;;;;;5094035;28;19908;-50
2023/07/05 04:57:12;;;;;;;;;;;23.40;88.90;;;;;;5093207;28;19955;-50
2023/07/05 04:59:43;;;;;;;;;;;23.40;88.80;;;;;;5094239;28;19916;-51
2023/07/05 05:02:09;;;;;;;;;;;23.40;88.80;;;;;;5094385;28;19959;-48
2023/07/05 05:04:35;;;;;;;;;;;23.40;88.80;;;;;;5094460;28;19914;-51
2023/07/05 05:07:00;;;;;;;;;;;23.40;88.70;;;;;;5094812;28;20003;-52
2023/07/05 05:09:26;;;;;;;;;;;23.40;88.70;;;;;;5093867;28;19912;-53
2023/07/05 05:11:51;;;;;;;;;;;23.40;88.70;;;;;;5093967;28;19912;-54
2023/07/05 05:14:17;;;;;;;;;;;23.40;88.70;;;;;;5093370;28;19908;-50
2023/07/05 05:16:42;;;;;;;;;;;23.40;88.70;;;;;;5094262;28;20359;-52
2023/07/05 05:19:07;;;;;;;;;;;23.40;88.70;;;;;;5094230;28;19908;-54
2023/07/05 05:21:33;;;;;;;;;;;23.40;88.70;;;;;;5089030;28;19955;-53
2023/07/05 05:23:58;;;;;;;;;;;23.40;88.60;;;;;;5074374;28;19919;-54
2023/07/05 05:26:24;;;;;;;;;;;23.40;88.60;;;;;;5090056;28;19908;-52
2023/07/05 05:28:49;;;;;;;;;;;23.40;88.60;;;;;;5079744;28;19912;-50
2023/07/05 05:31:15;;;;;;;;;;;23.40;88.70;;;;;;5073736;28;20053;-54
2023/07/05 05:33:40;;;;;;;;;;;23.40;88.60;;;;;;5073814;28;19914;-54
2023/07/05 05:36:06;;;;;;;;;;;23.40;88.60;;;;;;5073577;28;20363;-54
2023/07/05 05:38:33;;;;;;;;;;;23.40;88.60;;;;;;5093836;28;19910;-50
2023/07/05 05:41:00;;;;;;;;;;;23.40;88.60;;;;;;5071530;28;19908;-51
2023/07/05 05:43:25;;;;;;;;;;;23.40;88.70;;;;;;5060676;28;19916;-56
2023/07/05 05:45:51;;;;;;;;;;;23.40;88.70;;;;;;5090854;28;20327;-55
2023/07/05 05:48:16;;;;;;;;;;;23.40;88.80;;;;;;5099825;28;20274;-51
2023/07/05 05:50:42;;;;;;;;;;;23.40;88.90;;;;;;5098967;28;19995;-53
2023/07/05 05:53:10;;;;;;;;;;;23.40;89.00;;;;;;5105169;28;20396;-51
2023/07/05 05:55:36;;;;;;;;;;;23.40;89.10;;;;;;5095685;28;19911;-49
2023/07/05 05:58:01;;;;;;;;;;;23.40;89.20;;;;;;5109558;28;19911;-54
2023/07/05 06:00:28;;;;;;;;;;;23.40;89.20;;;;;;5094480;28;19919;-53
2023/07/05 06:02:56;;;;;;;;;;;23.40;89.20;;;;;;5095644;28;19915;-52
2023/07/05 06:05:21;;;;;;;;;;;23.40;89.10;;;;;;5114999;28;20047;-51
2023/07/05 06:07:47;;;;;;;;;;;23.40;89.00;;;;;;5104710;28;20398;-50
2023/07/05 06:10:12;;;;;;;;;;;23.40;89.00;;;;;;5097846;28;19912;-52
2023/07/05 06:12:41;;;;;;;;;;;23.40;89.20;;;;;;5109912;28;19944;-53
2023/07/05 06:15:08;;;;;;;;;;;23.40;89.10;;;;;;5101009;28;20388;-50
2023/07/05 06:17:33;;;;;;;;;;;23.40;89.70;;;;;;5110531;28;19908;-55
2023/07/05 06:19:59;;;;;;;;;;;23.40;89.50;;;;;;5105920;28;19972;-51
2023/07/05 06:22:25;;;;;;;;;;;23.40;89.60;;;;;;5117258;28;19908;-52
2023/07/05 06:24:51;;;;;;;;;;;23.40;89.70;;;;;;5111117;28;20295;-57
2023/07/05 06:27:17;;;;;;;;;;;23.40;89.90;;;;;;5114205;28;19911;-52
2023/07/05 06:29:42;;;;;;;;;;;23.40;90.00;;;;;;5112797;28;20355;-49
2023/07/05 06:32:08;;;;;;;;;;;23.40;90.00;;;;;;5116894;28;19912;-51
2023/07/05 06:34:33;;;;;;;;;;;23.40;90.10;;;;;;5117099;28;19907;-51
2023/07/05 06:36:59;;;;;;;;;;;23.40;90.10;;;;;;5117529;28;19931;-53
2023/07/05 06:39:24;;;;;;;;;;;23.50;90.20;;;;;;5112532;28;20010;-52
2023/07/05 06:41:49;;;;;;;;;;;23.50;90.20;;;;;;5089711;28;19912;-53
2023/07/05 06:44:15;;;;;;;;;;;23.40;90.20;;;;;;5098487;28;19920;-50
2023/07/05 06:46:40;;;;;;;;;;;23.50;90.30;;;;;;5112740;28;20259;-54
2023/07/05 06:49:06;;;;;;;;;;;23.50;90.30;;;;;;5116888;28;19934;-55
2023/07/05 06:51:31;;;;;;;;;;;23.40;90.30;;;;;;5113309;28;19920;-57
2023/07/05 06:53:57;;;;;;;;;;;23.50;90.30;;;;;;5117352;28;19954;-56
2023/07/05 06:56:22;;;;;;;;;;;23.40;90.40;;;;;;5116813;28;20421;-58
2023/07/05 06:58:48;;;;;;;;;;;23.50;90.40;;;;;;5117129;28;19907;-54
2023/07/05 07:01:13;;;;;;;;;;;23.40;90.40;;;;;;5103145;28;20678;-51
2023/07/05 07:03:39;;;;;;;;;;;23.50;90.40;;;;;;5108595;28;19913;-56
2023/07/05 07:06:05;;;;;;;;;;;23.50;90.40;;;;;;5110837;28;19983;-57
2023/07/05 07:08:33;;;;;;;;;;;23.50;90.40;;;;;;5108443;28;19920;-55
2023/07/05 07:11:00;;;;;;;;;;;23.50;90.40;;;;;;5116841;28;19912;-56
2023/07/05 07:13:26;;;;;;;;;;;23.50;90.40;;;;;;5116962;28;19912;-58
2023/07/05 07:16:02;;;;;;;;;;;23.50;90.50;;;;;;5116902;28;19930;-57
2023/07/05 07:18:27;;;;;;;;;;;23.50;90.40;;;;;;5089295;28;19918;-55
2023/07/05 07:20:54;;;;;;;;;;;23.50;90.50;;;;;;5116328;28;20002;-55
2023/07/05 07:23:19;;;;;;;;;;;23.50;90.50;;;;;;5116586;28;19930;-55
2023/07/05 07:25:44;;;;;;;;;;;23.50;90.50;;;;;;5115775;28;20327;-55
2023/07/05 07:28:10;;;;;;;;;;;23.50;90.50;;;;;;5109137;28;19912;-53
2023/07/05 07:30:35;;;;;;;;;;;23.50;90.50;;;;;;5111598;28;19923;-57
2023/07/05 07:33:01;;;;;;;;;;;23.50;90.50;;;;;;5109593;28;19916;-54
2023/07/05 07:35:27;;;;;;;;;;;23.50;90.50;;;;;;5113053;28;19912;-53
2023/07/05 07:37:52;;;;;;;;;;;23.50;90.40;;;;;;5091083;28;20324;-57
2023/07/05 07:40:17;;;;;;;;;;;23.50;90.40;;;;;;5116063;28;20275;-57
2023/07/05 07:42:43;;;;;;;;;;;23.60;90.40;;;;;;5116210;28;19908;-56
2023/07/05 07:45:08;;;;;;;;;;;23.60;90.50;;;;;;5115861;28;19964;-56
2023/07/05 07:47:34;;;;;;;;;;;23.50;90.40;;;;;;5110581;28;20362;-57
2023/07/05 07:49:59;;;;;;;;;;;23.60;90.50;;;;;;5115900;28;19962;-54
2023/07/05 07:52:25;;;;;;;;;;;23.60;90.40;;;;;;5101658;28;19942;-53
2023/07/05 07:54:53;;;;;;;;;;;23.60;90.40;;;;;;5111436;28;20390;-50
2023/07/05 07:57:18;;;;;;;;;;;23.60;90.40;;;;;;5116031;28;19953;-54
2023/07/05 07:59:45;;;;;;;;;;;23.60;90.40;;;;;;5108275;28;19915;-54
2023/07/05 08:02:12;;;;;;;;;;;23.60;90.40;;;;;;5109571;28;20334;-54
2023/07/05 08:04:44;;;;;;;;;;;23.60;90.40;;;;;;5110395;28;20262;-53
2023/07/05 08:07:10;;;;;;;;;;;23.60;90.40;;;;;;5115542;28;20427;-50
2023/07/05 08:09:35;;;;;;;;;;;23.60;90.40;;;;;;5086743;28;19920;-54
2023/07/05 08:12:01;;;;;;;;;;;23.60;90.40;;;;;;5088912;28;19969;-54
2023/07/05 08:14:26;;;;;;;;;;;23.60;90.30;;;;;;5090349;28;20319;-53
2023/07/05 08:16:52;;;;;;;;;;;23.60;90.40;;;;;;5094756;28;19912;-56
2023/07/05 08:19:20;;;;;;;;;;;23.60;90.40;;;;;;5093889;28;19912;-58
2023/07/05 08:21:46;;;;;;;;;;;23.60;90.40;;;;;;5092816;28;19923;-56
2023/07/05 08:24:12;;;;;;;;;;;23.60;90.40;;;;;;5113202;28;19911;-51
2023/07/05 08:26:38;;;;;;;;;;;23.60;90.20;;;;;;5115414;28;20311;-58
2023/07/05 08:29:03;;;;;;;;;;;23.60;90.20;;;;;;5102602;28;19916;-54
2023/07/05 08:31:29;;;;;;;;;;;23.60;90.30;;;;;;5113828;28;19939;-52
2023/07/05 08:33:55;;;;;;;;;;;23.60;90.30;;;;;;5111146;28;19919;-54
2023/07/05 08:36:37;;;;;;;;;;;23.60;90.50;;;;;;5105378;28;19923;-51
2023/07/05 08:39:05;;;;;;;;;;;23.60;90.20;;;;;;5074506;28;19991;-55
2023/07/05 08:41:31;;;;;;;;;;;23.60;90.10;;;;;;5096103;28;19912;-55
2023/07/05 08:43:59;;;;;;;;;;;23.60;90.10;;;;;;5114899;28;19908;-59
2023/07/05 08:46:25;;;;;;;;;;;23.60;90.10;;;;;;5110651;28;20297;-56
2023/07/05 08:48:53;;;;;;;;;;;23.60;90.10;;;;;;5114553;28;20377;-58
2023/07/05 08:51:19;;;;;;;;;;;23.60;90.10;;;;;;5110909;28;19941;-60
2023/07/05 08:53:47;;;;;;;;;;;23.60;90.10;;;;;;5114525;28;19908;-51
2023/07/05 08:56:18;;;;;;;;;;;23.60;90.10;;;;;;5110261;28;20305;-53
2023/07/05 08:58:47;;;;;;;;;;;23.60;90.00;;;;;;5114544;28;19907;-52
2023/07/05 09:01:19;;;;;;;;;;;23.60;90.00;;;;;;5114419;28;19908;-51
2023/07/05 09:03:44;;;;;;;;;;;23.60;89.50;;;;;;5105931;28;19912;-51
2023/07/05 09:06:21;;;;;;;;;;;23.60;89.70;;;;;;5092226;28;19980;-56
2023/07/05 09:08:52;;;;;;;;;;;23.60;89.90;;;;;;5105056;28;19919;-52
2023/07/05 09:11:25;;;;;;;;;;;23.60;89.90;;;;;;5093652;28;19955;-52
2023/07/05 09:13:56;;;;;;;;;;;23.70;90.00;;;;;;5110968;28;19912;-49
2023/07/05 09:16:29;;;;;;;;;;;23.70;90.00;;;;;;5113351;28;19919;-52
2023/07/05 09:19:08;;;;;;;;;;;23.70;90.00;;;;;;5110589;28;19912;-52
2023/07/05 09:21:36;;;;;;;;;;;23.60;90.00;;;;;;5109451;28;21673;-55
2023/07/05 09:24:04;;;;;;;;;;;23.60;89.90;;;;;;5114759;28;19908;-53
2023/07/05 09:26:33;;;;;;;;;;;23.70;90.00;;;;;;5114468;28;19907;-53
2023/07/05 09:29:06;;;;;;;;;;;23.70;90.00;;;;;;5092775;28;19923;-47
2023/07/05 09:31:33;;;;;;;;;;;23.70;90.00;;;;;;5106525;28;19916;-51
2023/07/05 09:34:11;;;;;;;;;;;23.60;90.00;;;;;;5113862;28;19908;-46
2023/07/05 09:36:37;;;;;;;;;;;23.70;90.00;;;;;;5111853;28;19914;-54
2023/07/05 09:39:15;;;;;;;;;;;23.70;89.80;;;;;;5110877;28;19997;-52
2023/07/05 09:41:43;;;;;;;;;;;23.70;89.50;;;;;;5111824;28;19915;-57
2023/07/05 09:44:09;;;;;;;;;;;23.60;89.50;;;;;;5115415;28;19919;-53
2023/07/05 09:46:36;;;;;;;;;;;23.60;89.40;;;;;;5118544;28;20339;-53
2023/07/05 09:49:01;;;;;;;;;;;23.70;89.70;;;;;;5118055;28;19965;-54
2023/07/05 09:51:27;;;;;;;;;;;23.70;89.90;;;;;;5114349;28;20320;-55
2023/07/05 09:53:55;;;;;;;;;;;23.70;89.90;;;;;;5106550;28;19959;-56
2023/07/05 09:56:27;;;;;;;;;;;23.70;89.90;;;;;;5110548;28;19915;-55
2023/07/05 09:59:04;;;;;;;;;;;23.70;89.80;;;;;;5118152;28;19908;-53
2023/07/05 10:01:30;;;;;;;;;;;23.70;89.80;;;;;;5112237;28;19953;-51
2023/07/05 10:03:57;;;;;;;;;;;23.70;89.80;;;;;;5097679;28;19919;-53
2023/07/05 10:06:24;;;;;;;;;;;23.70;89.80;;;;;;5113444;28;20049;-55
2023/07/05 10:08:50;;;;;;;;;;;23.70;89.80;;;;;;5113455;28;19923;-59
2023/07/05 10:11:19;;;;;;;;;;;23.70;89.90;;;;;;5104629;28;19945;-55
2023/07/05 10:13:45;;;;;;;;;;;23.70;89.90;;;;;;5113560;28;20354;-56
2023/07/05 10:16:10;;;;;;;;;;;23.70;89.80;;;;;;5114555;28;19912;-57
2023/07/05 10:18:39;;;;;;;;;;;23.70;89.80;;;;;;5117782;28;19969;-53
2023/07/05 10:21:09;;;;;;;;;;;23.70;89.80;;;;;;5093967;28;19919;-50
2023/07/05 10:23:34;;;;;;;;;;;23.70;89.70;;;;;;5117606;28;19908;-53
2023/07/05 10:26:06;;;;;;;;;;;23.70;89.80;;;;;;5110406;28;19912;-60
2023/07/05 10:28:33;;;;;;;;;;;23.70;89.80;;;;;;5110579;28;20011;-56
2023/07/05 10:31:00;;;;;;;;;;;23.70;89.80;;;;;;5111913;28;19916;-54
2023/07/05 10:33:27;;;;;;;;;;;23.70;89.80;;;;;;5108202;28;19923;-56
2023/07/05 10:35:53;;;;;;;;;;;23.70;89.70;;;;;;5110084;28;19912;-53
2023/07/05 10:38:24;;;;;;;;;;;23.70;89.70;;;;;;5117171;28;19908;-52
2023/07/05 10:40:50;;;;;;;;;;;23.70;89.80;;;;;;5111962;28;20282;-49
2023/07/05 10:43:17;;;;;;;;;;;23.70;89.80;;;;;;5114715;28;19916;-54
2023/07/05 10:45:42;;;;;;;;;;;23.70;89.80;;;;;;5117373;28;19920;-56
2023/07/05 10:48:16;;;;;;;;;;;23.70;89.80;;;;;;5117148;28;19915;-50
2023/07/05 10:50:43;;;;;;;;;;;23.70;89.80;;;;;;5115369;28;19964;-55
2023/07/05 10:53:13;;;;;;;;;;;23.70;89.90;;;;;;5098709;28;19908;-56
2023/07/05 10:55:44;;;;;;;;;;;23.70;89.90;;;;;;5116915;28;20383;-51
2023/07/05 10:58:12;;;;;;;;;;;23.70;89.90;;;;;;5116904;28;19941;-51
2023/07/05 11:00:40;;;;;;;;;;;23.70;89.80;;;;;;5110204;28;20363;-54
2023/07/05 11:03:17;;;;;;;;;;;23.70;89.90;;;;;;5111500;28;20188;-52
2023/07/05 11:05:47;;;;;;;;;;;23.70;89.90;;;;;;5117065;28;20290;-50
2023/07/05 11:08:17;;;;;;;;;;;23.70;89.90;;;;;;5117029;28;19908;-53
2023/07/05 11:10:43;;;;;;;;;;;23.70;89.90;;;;;;5111293;28;19936;-51
2023/07/05 11:13:15;;;;;;;;;;;23.70;89.90;;;;;;5116416;28;19912;-54
2023/07/05 11:15:41;;;;;;;;;;;23.70;89.90;;;;;;5112272;28;19912;-52
2023/07/05 11:18:12;;;;;;;;;;;23.70;89.90;;;;;;5116784;28;19973;-51
2023/07/05 11:20:39;;;;;;;;;;;23.70;89.90;;;;;;5097653;28;19951;-53
2023/07/05 11:23:05;;;;;;;;;;;23.70;89.90;;;;;;5113819;28;19947;-55
2023/07/05 11:25:49;;;;;;;;;;;23.70;90.00;;;;;;5114296;28;19954;-51
2023/07/05 11:28:31;;;;;;;;;;;23.70;90.00;;;;;;5116279;28;19915;-55
2023/07/05 11:30:56;;;;;;;;;;;23.70;90.00;;;;;;5087957;28;20010;-58
2023/07/05 11:33:22;;;;;;;;;;;23.70;90.00;;;;;;5094095;28;19994;-55
2023/07/05 11:35:48;;;;;;;;;;;23.70;90.00;;;;;;5109566;28;19928;-59
2023/07/05 11:38:32;;;;;;;;;;;23.70;90.00;;;;;;5111219;28;19916;-55
2023/07/05 11:41:04;;;;;;;;;;;23.70;90.00;;;;;;5116244;28;19912;-55
2023/07/05 11:43:39;;;;;;;;;;;23.70;90.00;;;;;;5109999;28;20251;-53
2023/07/05 11:46:24;;;;;;;;;;;23.70;90.00;;;;;;5112514;28;20010;-56
2023/07/05 11:48:50;;;;;;;;;;;23.70;90.00;;;;;;5111822;28;19939;-54
2023/07/05 11:51:33;;;;;;;;;;;23.70;90.00;;;;;;5115865;28;20369;-54
2023/07/05 11:53:59;;;;;;;;;;;23.70;90.00;;;;;;5115585;28;19908;-55
2023/07/05 11:56:27;;;;;;;;;;;23.70;90.00;;;;;;5110712;28;20422;-53
2023/07/05 11:58:54;;;;;;;;;;;23.70;90.00;;;;;;5097366;28;20274;-55
2023/07/05 12:01:24;;;;;;;;;;;23.70;90.00;;;;;;5093759;28;19919;-55
2023/07/05 12:03:58;;;;;;;;;;;23.70;90.00;;;;;;5089011;28;19990;-56
2023/07/05 12:06:28;;;;;;;;;;;23.70;89.90;;;;;;5100170;28;19912;-55
2023/07/05 12:08:56;;;;;;;;;;;23.70;90.00;;;;;;5078917;28;19941;-55
2023/07/05 12:11:35;;;;;;;;;;;23.70;89.90;;;;;;5089710;28;20000;-56
2023/07/05 12:14:02;;;;;;;;;;;23.70;89.90;;;;;;5092844;28;19912;-57
2023/07/05 12:16:28;;;;;;;;;;;23.70;89.90;;;;;;5108773;28;19912;-55
2023/07/05 12:18:54;;;;;;;;;;;23.70;89.70;;;;;;5110146;28;19912;-58
2023/07/05 12:21:19;;;;;;;;;;;23.70;89.70;;;;;;5110762;28;19912;-57
2023/07/05 12:23:45;;;;;;;;;;;23.70;89.70;;;;;;5111344;28;20505;-56
2023/07/05 12:26:18;;;;;;;;;;;23.70;89.80;;;;;;5115767;28;19911;-54
2023/07/05 12:28:46;;;;;;;;;;;23.70;89.70;;;;;;5096887;28;20426;-50
2023/07/05 12:31:12;;;;;;;;;;;23.70;89.70;;;;;;5109077;28;19977;-54
2023/07/05 12:33:38;;;;;;;;;;;23.70;89.70;;;;;;5111038;28;19912;-58
2023/07/05 12:36:09;;;;;;;;;;;23.70;89.70;;;;;;5108515;28;19918;-55
2023/07/05 12:38:35;;;;;;;;;;;23.70;89.80;;;;;;5106572;28;19913;-53
2023/07/05 12:41:01;;;;;;;;;;;23.70;89.80;;;;;;5108092;28;19934;-55
2023/07/05 12:43:28;;;;;;;;;;;23.70;89.80;;;;;;5111513;28;19943;-55
2023/07/05 12:46:07;;;;;;;;;;;23.70;89.80;;;;;;5110573;28;19927;-54
2023/07/05 12:48:32;;;;;;;;;;;23.70;89.80;;;;;;5094628;28;20017;-52
2023/07/05 12:51:04;;;;;;;;;;;23.70;89.80;;;;;;5081643;28;20324;-55
2023/07/05 12:53:30;;;;;;;;;;;23.70;89.90;;;;;;5110825;28;19912;-54
2023/07/05 12:55:59;;;;;;;;;;;23.70;90.00;;;;;;5111266;28;19916;-59
2023/07/05 12:58:26;;;;;;;;;;;23.70;90.00;;;;;;5113671;28;19908;-57
2023/07/05 13:00:53;;;;;;;;;;;23.70;90.00;;;;;;5114781;28;20357;-58
2023/07/05 13:03:18;;;;;;;;;;;23.70;90.00;;;;;;5101324;28;19912;-56
2023/07/05 13:05:44;;;;;;;;;;;23.70;90.00;;;;;;5091248;28;19912;-55
2023/07/05 13:08:11;;;;;;;;;;;23.70;90.00;;;;;;5111098;28;19911;-55
2023/07/05 13:10:37;;;;;;;;;;;23.70;90.00;;;;;;5107286;28;19925;-59
2023/07/05 13:13:19;;;;;;;;;;;23.70;90.00;;;;;;5102879;28;19922;-60
2023/07/05 13:15:45;;;;;;;;;;;23.70;90.00;;;;;;5101753;28;19999;-56
2023/07/05 13:18:20;;;;;;;;;;;23.70;90.00;;;;;;5110202;28;20347;-58
2023/07/05 13:20:46;;;;;;;;;;;23.70;90.00;;;;;;5106447;28;19912;-54
2023/07/05 13:23:11;;;;;;;;;;;23.70;90.00;;;;;;5107303;28;19919;-57
2023/07/05 13:25:44;;;;;;;;;;;23.70;90.00;;;;;;5108735;28;19917;-58
2023/07/05 13:28:20;;;;;;;;;;;23.80;90.00;;;;;;5075777;28;19924;-55
2023/07/05 13:30:50;;;;;;;;;;;23.70;90.00;;;;;;5096018;28;19920;-51
2023/07/05 13:33:16;;;;;;;;;;;23.70;90.00;;;;;;5108975;28;19923;-55
2023/07/05 13:35:41;;;;;;;;;;;23.80;90.00;;;;;;5109731;28;19919;-54
2023/07/05 13:38:07;;;;;;;;;;;23.70;90.00;;;;;;5106483;28;19952;-61
2023/07/05 13:40:32;;;;;;;;;;;23.80;90.00;;;;;;5114602;28;19908;-57
2023/07/05 13:43:00;;;;;;;;;;;23.80;90.10;;;;;;5092314;28;19912;-50
2023/07/05 13:45:27;;;;;;;;;;;23.70;90.10;;;;;;5094141;28;20007;-52
2023/07/05 13:47:53;;;;;;;;;;;23.70;90.10;;;;;;5109718;28;19912;-54
2023/07/05 13:50:18;;;;;;;;;;;23.70;90.00;;;;;;5104566;28;19922;-58
2023/07/05 13:52:45;;;;;;;;;;;23.70;90.00;;;;;;5113139;28;19912;-53
2023/07/05 13:55:18;;;;;;;;;;;23.70;90.00;;;;;;5108312;28;19987;-51
2023/07/05 13:57:53;;;;;;;;;;;23.80;90.10;;;;;;5096004;28;19912;-54
2023/07/05 14:00:19;;;;;;;;;;;23.70;90.10;;;;;;5098876;28;19912;-54
2023/07/05 14:02:44;;;;;;;;;;;23.70;90.10;;;;;;5096278;28;20407;-51
2023/07/05 14:05:11;;;;;;;;;;;23.80;90.10;;;;;;5109522;28;20011;-53
2023/07/05 14:07:37;;;;;;;;;;;23.70;90.10;;;;;;5101723;28;19966;-53
2023/07/05 14:10:02;;;;;;;;;;;23.70;90.10;;;;;;5105991;28;20330;-53
2023/07/05 14:12:27;;;;;;;;;;;23.70;90.10;;;;;;5113606;28;19912;-54
2023/07/05 14:14:53;;;;;;;;;;;23.70;90.00;;;;;;5108192;28;20026;-55
2023/07/05 14:17:20;;;;;;;;;;;23.70;90.00;;;;;;5108273;28;20366;-50